Time;durP1;ratioP1;P1;durP2;ratioP2;P2;SDS_P1;SDS_P2;PMS_P1;PMS_P2;Temp;Humidity;BMP_temperature;BMP_pressure;BME280_temperature;BME280_humidity;BME280_pressure;Samples;Min_cycle;Max_cycle;Signal;HPM_P1;HPM_P2
2023/01/28 00:00:09;;;;;;;2.50;2.30;;;;;;;-143.84;95.59;44070.47;5014740;28;21078;-73
2023/01/28 00:02:37;;;;;;;2.43;2.33;;;;;;;-143.84;95.70;44070.47;5015333;28;20455;-73
2023/01/28 00:05:04;;;;;;;6.93;2.80;;;;;;;-143.84;95.83;44068.56;5015378;28;20482;-73
2023/01/28 00:07:32;;;;;;;3.70;3.00;;;;;;;-143.84;95.31;44059.03;5015469;28;20525;-73
2023/01/28 00:09:59;;;;;;;2.50;2.30;;;;;;;-143.84;95.54;44059.03;5015434;28;20453;-73
2023/01/28 00:12:28;;;;;;;3.33;2.60;;;;;;;-143.84;95.39;44047.63;5015438;28;20447;-73
2023/01/28 00:14:55;;;;;;;2.20;2.00;;;;;;;-143.84;95.28;44060.94;5015368;28;20463;-73
2023/01/28 00:17:22;;;;;;;2.97;2.77;;;;;;;-143.84;94.99;44053.34;5015224;28;21038;-73
2023/01/28 00:19:49;;;;;;;2.87;2.67;;;;;;;-143.84;95.06;44053.34;5015219;28;21005;-73
2023/01/28 00:22:16;;;;;;;2.50;2.30;;;;;;;-143.84;94.97;44051.44;5015046;28;20435;-73
2023/01/28 00:24:44;;;;;;;2.50;2.30;;;;;;;-143.84;94.53;44036.22;5015358;28;20980;-73
2023/01/28 00:27:11;;;;;;;2.73;2.47;;;;;;;-143.84;94.93;44041.91;5015090;28;20973;-73
2023/01/28 00:29:40;;;;;;;2.73;2.50;;;;;;;-143.84;94.66;44038.09;5015121;28;20508;-73
2023/01/28 00:32:07;;;;;;;2.70;2.50;;;;;;;-143.84;94.54;44036.22;5015157;28;20447;-73
2023/01/28 00:34:34;;;;;;;3.33;3.03;;;;;;;-143.84;94.51;44028.59;5015009;28;20447;-73
2023/01/28 00:37:01;;;;;;;2.40;2.20;;;;;;;-143.84;94.48;44038.09;5015310;28;20442;-73
2023/01/28 00:39:28;;;;;;;3.00;2.73;;;;;;;-143.84;94.24;44038.09;5015383;28;20537;-73
2023/01/28 00:41:55;;;;;;;2.37;2.17;;;;;;;-143.84;94.54;44041.91;5014910;28;20510;-73
2023/01/28 00:44:22;;;;;;;3.30;3.00;;;;;;;-143.84;94.91;44041.91;5014811;28;20619;-73
2023/01/28 00:46:51;;;;;;;3.40;2.40;;;;;;;-143.84;95.02;44047.63;5014835;28;20447;-73
2023/01/28 00:49:18;;;;;;;2.90;2.70;;;;;;;-143.84;94.87;44057.16;5014564;28;20512;-73
2023/01/28 00:51:47;;;;;;;3.30;2.67;;;;;;;-143.84;95.37;44064.75;5014440;28;20513;-73
2023/01/28 00:54:15;;;;;;;2.87;2.67;;;;;;;-143.84;96.10;44074.28;5015297;28;20567;-73
2023/01/28 00:56:42;;;;;;;2.10;2.00;;;;;;;-143.84;95.82;44091.41;5015075;28;20474;-73
2023/01/28 00:59:10;;;;;;;2.20;2.00;;;;;;;-143.84;96.12;44087.59;5010967;28;20492;-73
2023/01/28 01:01:37;;;;;;;3.00;2.80;;;;;;;-143.84;96.24;44080.00;5011657;28;20455;-73
2023/01/28 01:04:05;;;;;;;2.83;2.63;;;;;;;-143.84;96.26;44091.41;5011941;28;20486;-73
2023/01/28 01:06:35;;;;;;;3.13;2.37;;;;;;;-143.84;96.44;44087.59;5011857;28;20432;-73
2023/01/28 01:09:03;;;;;;;3.57;3.27;;;;;;;-143.84;96.06;44089.50;5011533;28;20462;-73
2023/01/28 01:11:30;;;;;;;3.40;3.10;;;;;;;-143.84;96.18;44072.38;5011594;28;20454;-73
2023/01/28 01:13:59;;;;;;;3.00;2.80;;;;;;;-143.84;96.33;44083.78;5011496;28;20485;-73
2023/01/28 01:16:28;;;;;;;3.53;3.23;;;;;;;-143.84;95.99;44081.88;5011472;28;20439;-73
2023/01/28 01:18:58;;;;;;;3.90;3.50;;;;;;;-143.84;96.31;44085.69;5011864;28;20493;-73
2023/01/28 01:21:28;;;;;;;2.90;2.50;;;;;;;-143.84;95.91;44087.59;5011465;28;20936;-73
2023/01/28 01:23:55;;;;;;;4.83;3.33;;;;;;;-143.84;95.93;44085.69;5011453;28;20490;-73
2023/01/28 01:26:23;;;;;;;3.93;3.57;;;;;;;-143.84;96.19;44070.47;5011490;28;20443;-73
2023/01/28 01:28:51;;;;;;;5.00;4.17;;;;;;;-143.84;95.87;44074.28;5011377;28;20991;-73
2023/01/28 01:31:21;;;;;;;4.90;4.23;;;;;;;-143.84;96.38;44083.78;5010574;28;20440;-74
2023/01/28 01:33:50;;;;;;;5.37;4.20;;;;;;;-143.84;95.71;44074.28;5010062;28;20440;-73
2023/01/28 01:36:19;;;;;;;6.20;3.90;;;;;;;-143.84;95.59;44060.94;5010838;28;20450;-73
2023/01/28 01:38:48;;;;;;;5.37;4.87;;;;;;;-143.84;95.56;44062.84;5010724;28;20529;-74
2023/01/28 01:41:28;;;;;;;4.40;3.83;;;;;;;-143.84;95.69;44070.47;5010679;28;21026;-74
2023/01/28 01:43:58;;;;;;;6.40;3.90;;;;;;;-143.84;95.71;44068.56;5010921;28;20444;-73
2023/01/28 01:46:35;;;;;;;4.87;4.47;;;;;;;-143.84;95.61;44068.56;5011011;28;20780;-73
2023/01/28 01:49:13;;;;;;;5.53;4.30;;;;;;;-143.84;95.45;44064.75;5010928;28;20445;-73
2023/01/28 01:51:41;;;;;;;5.50;4.63;;;;;;;-143.84;95.08;44059.03;5010756;28;21015;-73
2023/01/28 01:54:09;;;;;;;7.10;4.80;;;;;;;-143.84;95.59;44081.88;5011159;28;20439;-73
2023/01/28 01:56:42;;;;;;;5.20;4.70;;;;;;;-143.84;96.03;44066.66;5010806;28;20506;-73
2023/01/28 01:59:12;;;;;;;7.47;5.73;;;;;;;-143.84;95.69;44060.94;5010518;28;20453;-73
2023/01/28 02:01:40;;;;;;;7.07;5.80;;;;;;;-143.84;95.34;44053.34;5011067;28;20987;-73
2023/01/28 02:04:12;;;;;;;5.73;4.33;;;;;;;-143.84;94.82;44049.53;5010315;28;20827;-73
2023/01/28 02:06:41;;;;;;;6.33;4.57;;;;;;;-143.84;94.89;44022.88;5010450;28;20939;-73
2023/01/28 02:09:24;;;;;;;7.60;5.30;;;;;;;-143.84;94.56;44026.69;5009953;28;20456;-73
2023/01/28 02:11:54;;;;;;;7.40;5.00;;;;;;;-143.84;94.82;44043.81;5010580;28;20450;-73
2023/01/28 02:14:23;;;;;;;7.20;4.87;;;;;;;-143.84;95.16;44041.91;5010491;28;20448;-74
2023/01/28 02:16:50;;;;;;;5.37;4.87;;;;;;;-143.84;94.49;44038.09;5010587;28;20538;-73
2023/01/28 02:19:22;;;;;;;8.40;5.33;;;;;;;-143.84;94.66;44028.59;5010578;28;20479;-73
2023/01/28 02:22:15;;;;;;;7.10;4.73;;;;;;;-143.84;94.18;44028.59;5010692;28;20506;-73
2023/01/28 02:25:26;;;;;;;5.60;5.00;;;;;;;-143.84;94.25;43998.13;4993826;28;20487;-73
2023/01/28 02:28:13;;;;;;;4.77;4.00;;;;;;;-143.84;94.22;44015.25;5009913;28;20870;-73
2023/01/28 02:30:45;;;;;;;6.53;4.70;;;;;;;-143.84;93.71;43996.22;5010095;28;20452;-73
2023/01/28 02:33:18;;;;;;;5.90;3.87;;;;;;;-143.84;93.38;44005.75;5009919;28;20604;-73
2023/01/28 02:35:49;;;;;;;4.17;3.77;;;;;;;-143.84;92.92;44000.03;5010100;28;20440;-73
2023/01/28 02:38:21;;;;;;;4.20;3.80;;;;;;;-143.84;93.18;43986.72;5010009;28;20480;-73
2023/01/28 02:41:05;;;;;;;3.70;3.40;;;;;;;-143.84;92.74;43981.00;5009815;28;20963;-73
2023/01/28 02:43:36;;;;;;;3.23;2.93;;;;;;;-143.84;93.40;43973.38;5009924;28;20779;-73
2023/01/28 02:48:59;;;;;;;3.47;2.90;;;;;;;-143.84;93.12;43994.31;5009808;28;20431;-73
2023/01/28 02:51:39;;;;;;;3.20;3.00;;;;;;;-143.84;93.10;43984.81;5009798;28;20467;-73
2023/01/28 02:54:13;;;;;;;5.30;3.70;;;;;;;-143.84;92.91;43975.28;5009626;28;20514;-73
2023/01/28 02:56:47;;;;;;;4.03;3.73;;;;;;;-143.84;93.20;43986.72;5009988;28;20443;-73
2023/01/28 02:59:34;;;;;;;3.70;3.20;;;;;;;-143.84;92.83;44001.94;5009609;28;20440;-73
2023/01/28 03:02:10;;;;;;;5.23;2.90;;;;;;;-143.84;92.91;43961.97;5009485;28;20515;-73
2023/01/28 03:04:42;;;;;;;3.17;2.87;;;;;;;-143.84;92.34;43969.59;5009195;28;20486;-73
2023/01/28 03:07:12;;;;;;;3.60;2.87;;;;;;;-143.84;93.09;43988.63;5009487;28;20448;-73
2023/01/28 03:09:41;;;;;;;4.20;3.30;;;;;;;-143.84;92.70;43981.00;5009347;28;20462;-73
2023/01/28 03:37:32;;;;;;;4.37;3.97;;;;;;;-143.84;92.30;43969.59;5009045;28;20467;-74
2023/01/28 03:40:03;;;;;;;5.93;4.10;;;;;;;-143.84;92.46;43977.19;5009488;28;20447;-74
2023/01/28 03:42:31;;;;;;;4.80;4.10;;;;;;;-143.84;92.34;43971.47;5009349;28;20845;-74
2023/01/28 03:45:00;;;;;;;5.20;4.47;;;;;;;-143.84;92.52;43969.59;5009113;28;21162;-74
2023/01/28 03:47:31;;;;;;;5.60;4.20;;;;;;;-143.84;92.17;43961.97;5009419;28;20799;-74
2023/01/28 03:49:59;;;;;;;4.33;3.83;;;;;;;-143.84;92.59;43971.47;5009306;28;20925;-74
2023/01/28 03:52:30;;;;;;;5.67;4.43;;;;;;;-143.84;92.80;43975.28;5009046;28;20952;-74
2023/01/28 03:54:58;;;;;;;5.53;4.50;;;;;;;-143.84;92.87;43973.38;5009315;28;20478;-74
2023/01/28 03:57:30;;;;;;;6.30;5.20;;;;;;;-143.84;92.66;43992.41;5009232;28;20497;-74
2023/01/28 03:59:57;;;;;;;5.97;4.70;;;;;;;-143.84;92.52;43977.19;5009580;28;20483;-74
2023/01/28 04:02:25;;;;;;;9.70;4.67;;;;;;;-143.84;92.94;43958.16;5009400;28;20518;-74
2023/01/28 04:04:54;;;;;;;6.37;4.60;;;;;;;-143.84;92.51;43967.69;5008952;28;20475;-74
2023/01/28 04:07:21;;;;;;;5.80;4.80;;;;;;;-143.84;93.08;43975.28;5009176;28;20447;-74
2023/01/28 04:09:48;;;;;;;6.73;4.73;;;;;;;-143.84;92.33;43973.38;5009351;28;20520;-74
2023/01/28 04:12:15;;;;;;;7.23;4.97;;;;;;;-143.84;92.88;43967.69;5009051;28;20837;-74
2023/01/28 04:14:43;;;;;;;6.30;5.10;;;;;;;-143.84;92.54;43956.25;5008863;28;20479;-74
2023/01/28 04:17:10;;;;;;;8.10;5.27;;;;;;;-143.84;91.97;43952.44;5008931;28;20447;-74
2023/01/28 04:19:37;;;;;;;7.27;4.83;;;;;;;-143.84;92.49;43969.59;5008901;28;20470;-74
2023/01/28 04:22:07;;;;;;;5.30;3.60;;;;;;;-143.84;92.26;43952.44;5009105;28;20435;-74
2023/01/28 04:24:34;;;;;;;6.13;5.00;;;;;;;-143.84;92.17;43960.06;5009063;28;20439;-74
2023/01/28 04:27:01;;;;;;;5.00;4.30;;;;;;;-143.84;92.47;43965.78;5009118;28;21236;-74
2023/01/28 04:29:29;;;;;;;6.37;5.10;;;;;;;-143.84;92.42;43969.59;5009114;28;20447;-74
2023/01/28 04:31:56;;;;;;;6.70;4.97;;;;;;;-143.84;92.20;43988.63;5008895;28;20467;-74
2023/01/28 04:34:23;;;;;;;5.17;4.10;;;;;;;-143.84;92.03;43935.31;5011494;28;20533;-74
2023/01/28 04:36:50;;;;;;;4.97;4.10;;;;;;;-143.84;92.06;43967.69;5012656;28;20512;-74
2023/01/28 04:39:19;;;;;;;4.73;4.23;;;;;;;-143.84;91.87;43942.94;5012613;28;20501;-74
2023/01/28 04:41:46;;;;;;;6.00;4.60;;;;;;;-143.84;91.54;43965.78;5012595;28;20474;-74
2023/01/28 04:44:15;;;;;;;6.30;4.63;;;;;;;-143.84;91.77;43941.03;5012262;28;20429;-74
2023/01/28 04:46:42;;;;;;;5.20;4.40;;;;;;;-143.84;91.82;43941.03;5012339;28;20497;-74
2023/01/28 04:49:09;;;;;;;7.13;4.67;;;;;;;-143.84;91.49;43942.94;5012262;28;20513;-75
2023/01/28 04:51:37;;;;;;;5.03;4.60;;;;;;;-143.84;91.19;43950.53;5012178;28;20501;-74
2023/01/28 04:54:04;;;;;;;4.50;4.10;;;;;;;-143.84;91.37;43944.84;5012577;28;20856;-74
2023/01/28 04:56:32;;;;;;;9.13;4.20;;;;;;;-143.84;91.10;43902.97;5011927;28;20451;-74
2023/01/28 04:59:00;;;;;;;4.93;4.20;;;;;;;-143.84;90.96;43922.00;5011930;28;20450;-74
2023/01/28 05:01:28;;;;;;;11.23;5.33;;;;;;;-143.84;91.52;43937.22;5011787;28;20483;-74
2023/01/28 05:03:55;;;;;;;4.63;4.23;;;;;;;-143.84;91.05;43939.13;5012467;28;20850;-74
2023/01/28 05:06:22;;;;;;;7.17;6.20;;;;;;;-143.84;91.57;43929.59;5011994;28;20490;-74
2023/01/28 05:08:49;;;;;;;8.97;5.90;;;;;;;-143.84;91.21;43975.28;5004446;28;20461;-74
2023/01/28 05:11:16;;;;;;;5.63;4.37;;;;;;;-143.84;91.18;43935.31;4973515;28;20449;-75
2023/01/28 05:13:45;;;;;;;6.47;5.30;;;;;;;-143.84;90.67;43950.53;4972913;28;20442;-76
2023/01/28 05:16:12;;;;;;;5.67;4.27;;;;;;;-143.84;91.09;43933.41;4973512;28;21017;-76
2023/01/28 05:18:39;;;;;;;6.37;5.57;;;;;;;-143.84;91.29;43948.63;4973636;28;20491;-75
2023/01/28 05:21:06;;;;;;;6.57;5.10;;;;;;;-143.84;90.67;43944.84;4972753;28;20449;-74
2023/01/28 05:23:33;;;;;;;6.90;4.73;;;;;;;-143.84;90.51;43937.22;4972982;28;20448;-73
2023/01/28 05:26:01;;;;;;;4.97;4.47;;;;;;;-143.84;91.06;43929.59;4972939;28;21316;-75
2023/01/28 05:28:28;;;;;;;6.23;5.17;;;;;;;-143.84;90.51;43935.31;4973202;28;20450;-75
2023/01/28 05:30:56;;;;;;;6.03;4.70;;;;;;;-143.84;90.67;43914.38;4972767;28;20448;-75
2023/01/28 05:33:23;;;;;;;5.50;4.03;;;;;;;-143.84;90.61;43929.59;4973633;28;20442;-74
2023/01/28 05:35:50;;;;;;;4.97;4.47;;;;;;;-143.84;90.86;43948.63;4986918;28;20456;-74
2023/01/28 05:38:18;;;;;;;7.50;5.20;;;;;;;-143.84;91.29;43923.91;4993079;28;20514;-74
2023/01/28 05:40:45;;;;;;;12.27;7.10;;;;;;;-143.84;91.32;43939.13;4992704;28;20482;-75
2023/01/28 05:43:12;;;;;;;13.60;8.00;;;;;;;-143.84;91.45;43933.41;4992637;28;20436;-75
2023/01/28 05:45:39;;;;;;;12.10;7.80;;;;;;;-143.84;90.53;43937.22;4992335;28;20487;-75
2023/01/28 05:48:08;;;;;;;9.83;6.60;;;;;;;-143.84;90.62;43937.22;4992689;28;20495;-74
2023/01/28 05:50:35;;;;;;;10.77;7.50;;;;;;;-143.84;90.30;43914.38;4992524;28;20451;-74
2023/01/28 05:53:05;;;;;;;9.10;7.20;;;;;;;-143.84;90.97;43933.41;4992424;28;20440;-75
2023/01/28 05:55:33;;;;;;;8.30;5.87;;;;;;;-143.84;90.48;43910.56;4991968;28;20449;-75
2023/01/28 05:58:00;;;;;;;9.30;6.30;;;;;;;-143.84;90.55;43893.44;4990269;28;20436;-75
2023/01/28 06:00:27;;;;;;;7.27;6.10;;;;;;;-143.84;90.63;43916.28;4989913;28;20480;-75
2023/01/28 06:02:54;;;;;;;6.77;5.67;;;;;;;-143.84;90.55;43927.69;4991787;28;21017;-74
2023/01/28 06:05:23;;;;;;;6.17;4.80;;;;;;;-143.84;90.34;43929.59;4990375;28;21001;-75
2023/01/28 06:07:51;;;;;;;6.23;5.30;;;;;;;-143.84;89.97;43914.38;5009590;28;20456;-75
2023/01/28 06:10:18;;;;;;;5.43;4.70;;;;;;;-143.84;90.10;43904.84;5010396;28;20538;-75
2023/01/28 06:12:45;;;;;;;6.80;5.90;;;;;;;-143.84;90.38;43893.44;5009961;28;20447;-75
2023/01/28 06:15:12;;;;;;;9.27;6.13;;;;;;;-143.84;90.70;43916.28;5010262;28;20440;-75
2023/01/28 06:17:39;;;;;;;7.10;5.93;;;;;;;-143.84;90.42;43935.31;5010331;28;20889;-74
2023/01/28 06:20:08;;;;;;;10.40;5.40;;;;;;;-143.84;89.94;43872.50;5010729;28;20498;-74
2023/01/28 06:22:37;;;;;;;7.13;5.63;;;;;;;-143.84;89.75;43931.50;5011126;28;20530;-75
2023/01/28 06:25:04;;;;;;;6.70;5.50;;;;;;;-143.84;89.59;43931.50;5011314;28;20591;-75
2023/01/28 06:27:31;;;;;;;8.70;6.80;;;;;;;-143.84;89.38;43912.47;5011463;28;20510;-75
2023/01/28 06:29:58;;;;;;;8.57;6.17;;;;;;;-143.84;89.51;43922.00;5011431;28;20443;-75
2023/01/28 06:32:26;;;;;;;8.90;6.20;;;;;;;-143.84;89.16;43918.19;5011323;28;20439;-75
2023/01/28 06:34:53;;;;;;;8.43;6.33;;;;;;;-143.84;89.33;43897.25;5011196;28;20443;-76
2023/01/28 06:37:20;;;;;;;9.70;7.20;;;;;;;-143.84;89.61;43889.63;5010188;28;20455;-75
2023/01/28 06:39:49;;;;;;;8.70;5.97;;;;;;;-143.84;89.68;43910.56;4991613;28;20520;-75
2023/01/28 06:42:16;;;;;;;10.40;7.23;;;;;;;-143.84;89.74;43920.09;4991583;28;20477;-75
2023/01/28 06:44:43;;;;;;;7.77;6.90;;;;;;;-143.84;89.06;43887.72;4991580;28;20499;-75
2023/01/28 06:47:10;;;;;;;8.10;6.17;;;;;;;-143.84;89.50;43891.53;4991556;28;20488;-75
2023/01/28 06:49:37;;;;;;;14.40;8.17;;;;;;;-143.84;89.13;43929.59;4991460;28;20463;-76
2023/01/28 06:52:05;;;;;;;12.00;6.77;;;;;;;-143.84;88.50;43895.34;4991465;28;20432;-75
2023/01/28 06:54:32;;;;;;;9.40;6.90;;;;;;;-143.84;88.68;43925.78;4991559;28;20800;-75
2023/01/28 06:57:00;;;;;;;8.43;5.33;;;;;;;-143.84;89.35;43895.34;4990780;28;20517;-75
2023/01/28 06:59:27;;;;;;;11.33;7.00;;;;;;;-143.84;89.55;43925.78;4990697;28;20460;-75
2023/01/28 07:01:54;;;;;;;7.70;6.90;;;;;;;-143.84;89.76;43904.84;4991086;28;20841;-75
2023/01/28 07:04:27;;;;;;;11.90;7.93;;;;;;;-143.84;90.33;43901.06;5000332;28;20455;-75
2023/01/28 07:07:03;;;;;;;9.03;7.03;;;;;;;-143.84;90.02;43906.75;5009998;28;20969;-75
2023/01/28 07:09:34;;;;;;;13.00;8.43;;;;;;;-143.84;89.87;43912.47;5010434;28;20941;-75
2023/01/28 07:12:04;;;;;;;16.43;8.30;;;;;;;-143.84;90.24;43883.91;5009551;28;20458;-75
2023/01/28 07:14:31;;;;;;;14.27;9.87;;;;;;;-143.84;90.14;43893.44;5009855;28;20961;-75
2023/01/28 07:16:58;;;;;;;16.33;9.83;;;;;;;-143.84;89.78;43916.28;5010393;28;20518;-75
2023/01/28 07:19:25;;;;;;;10.90;8.43;;;;;;;-143.84;88.93;43899.16;5009863;28;20447;-75
2023/01/28 07:21:56;;;;;;;16.27;8.57;;;;;;;-143.84;88.90;43916.28;5010149;28;20439;-75
2023/01/28 07:24:23;;;;;;;12.40;8.97;;;;;;;-143.84;88.90;43914.38;5010175;28;20439;-75
2023/01/28 07:26:50;;;;;;;9.27;6.90;;;;;;;-143.84;88.66;43904.84;5008362;28;20487;-74
2023/01/28 07:29:19;;;;;;;9.30;7.50;;;;;;;-143.84;88.39;43925.78;5008772;28;20876;-74
2023/01/28 07:31:46;;;;;;;8.83;6.50;;;;;;;-143.84;88.60;43931.50;5008205;28;20447;-74
2023/01/28 07:34:13;;;;;;;8.37;6.13;;;;;;;-143.84;88.25;43986.72;5008332;28;20448;-74
2023/01/28 07:36:40;;;;;;;7.70;6.70;;;;;;;-143.84;87.66;44036.22;5008403;28;20883;-74
2023/01/28 07:39:07;;;;;;;7.83;7.00;;;;;;;-143.84;87.74;44053.34;5008644;28;20538;-74
2023/01/28 07:41:35;;;;;;;8.60;6.47;;;;;;;-143.84;87.69;44043.81;5009166;28;20501;-74
2023/01/28 07:44:02;;;;;;;12.43;8.83;;;;;;;-143.84;87.72;43975.28;5009146;28;20458;-75
2023/01/28 07:46:30;;;;;;;11.40;7.70;;;;;;;-143.84;87.82;44047.63;5009731;28;20499;-74
2023/01/28 07:48:57;;;;;;;10.37;7.67;;;;;;;-143.84;87.84;44081.88;5009683;28;20439;-75
2023/01/28 07:51:24;;;;;;;9.73;7.00;;;;;;;-143.84;87.00;44158.03;5008176;28;20455;-75
2023/01/28 07:53:52;;;;;;;13.57;9.30;;;;;;;-143.84;87.09;44121.88;5009866;28;20452;-75
2023/01/28 07:56:19;;;;;;;10.27;7.47;;;;;;;-143.84;86.87;44089.50;5012660;28;20552;-75
2023/01/28 07:58:49;;;;;;;12.50;8.27;;;;;;;-143.84;86.68;44287.50;5008381;28;20473;-74
2023/01/28 08:01:17;;;;;;;10.63;7.47;;;;;;;-143.84;86.77;44310.34;5009881;28;20479;-75
2023/01/28 08:03:45;;;;;;;12.10;9.53;;;;;;;-143.84;87.30;44198.00;5008064;28;20463;-75
2023/01/28 08:06:12;;;;;;;12.23;8.93;;;;;;;-143.84;87.22;44150.41;5007953;28;20517;-75
2023/01/28 08:08:39;;;;;;;11.00;7.30;;;;;;;-143.84;86.99;44121.88;5014329;28;20518;-75
2023/01/28 08:11:09;;;;;;;9.47;7.57;;;;;;;-143.84;86.09;44538.78;5012066;28;20458;-75
2023/01/28 08:13:37;;;;;;;10.20;7.90;;;;;;;-143.84;85.89;44588.28;5014033;28;20483;-74
2023/01/28 08:16:04;;;;;;;9.30;7.50;;;;;;;-143.84;85.53;44586.38;5012347;28;20455;-74
2023/01/28 08:18:32;;;;;;;9.70;7.97;;;;;;;-143.84;85.55;44673.97;5013092;28;20526;-75
2023/01/28 08:21:00;;;;;;;10.30;7.80;;;;;;;-143.84;84.93;44736.81;5013158;28;20446;-75
2023/01/28 08:23:29;;;;;;;12.60;8.40;;;;;;;-143.84;84.29;44868.19;5012615;28;20448;-75
2023/01/28 08:25:59;;;;;;;9.53;7.63;;;;;;;-143.84;84.98;44778.69;5012793;28;20443;-75
2023/01/28 08:28:26;;;;;;;10.17;7.77;;;;;;;-143.84;84.62;44824.38;5013432;28;20802;-75
2023/01/28 08:30:53;;;;;;;11.10;7.17;;;;;;;-143.84;84.33;44911.97;5013247;28;21020;-75
2023/01/28 08:33:20;;;;;;;8.63;6.50;;;;;;;-143.84;84.83;44849.13;5013356;28;20447;-75
2023/01/28 08:35:47;;;;;;;11.93;8.30;;;;;;;-143.84;84.77;44818.66;5013075;28;20526;-75
2023/01/28 08:38:16;;;;;;;9.53;7.20;;;;;;;-143.84;83.68;44982.41;5013449;28;20514;-75
2023/01/28 08:40:43;;;;;;;11.17;7.83;;;;;;;-143.84;83.77;45005.28;5012800;28;20443;-75
2023/01/28 08:43:10;;;;;;;10.00;8.30;;;;;;;-143.84;83.71;44982.41;5012918;28;20510;-75
2023/01/28 08:45:40;;;;;;;11.80;8.10;;;;;;;-143.84;83.89;45056.69;5013013;28;20443;-75
2023/01/28 08:48:11;;;;;;;12.47;8.60;;;;;;;-143.84;83.90;44995.75;5013017;28;20486;-75
2023/01/28 08:50:39;;;;;;;9.13;7.90;;;;;;;-143.84;84.01;45005.28;5013292;28;20448;-75
2023/01/28 08:53:08;;;;;;;12.70;9.80;;;;;;;-143.84;84.27;44976.72;5012901;28;20435;-75
2023/01/28 08:55:37;;;;;;;13.53;9.20;;;;;;;-143.84;83.47;45030.03;5030701;28;20439;-75
2023/01/28 08:58:06;;;;;;;12.63;9.20;;;;;;;-143.84;83.86;44980.53;5033099;28;20516;-77
2023/01/28 09:00:34;;;;;;;13.00;8.63;;;;;;;-143.84;82.75;45104.28;5032858;28;21083;-76
2023/01/28 09:03:02;;;;;;;10.47;7.63;;;;;;;-143.84;82.92;45098.56;5034337;28;20933;-77
2023/01/28 09:05:31;;;;;;;12.07;9.03;;;;;;;-143.84;83.19;45058.59;5032831;28;20453;-75
2023/01/28 09:08:02;;;;;;;10.27;9.00;;;;;;;-143.84;83.38;45089.06;5032259;28;20482;-73
2023/01/28 09:10:29;;;;;;;11.83;7.57;;;;;;;-143.84;82.24;45121.44;5031027;28;20454;-73
2023/01/28 09:12:58;;;;;;;10.67;8.23;;;;;;;-143.84;82.65;45150.00;5031217;28;20450;-71
2023/01/28 09:15:25;;;;;;;17.77;10.33;;;;;;;-143.84;82.39;45144.28;5030859;28;20451;-71
2023/01/28 09:17:58;;;;;;;11.03;9.03;;;;;;;-143.84;81.79;45161.41;5030899;28;20486;-74
2023/01/28 09:20:25;;;;;;;16.97;10.50;;;;;;;-143.84;81.77;45163.31;5016205;28;20571;-71
2023/01/28 09:22:52;;;;;;;15.17;10.00;;;;;;;-143.84;81.98;45178.56;4991474;28;20437;-71
2023/01/28 09:25:20;;;;;;;11.27;8.20;;;;;;;-143.84;82.00;45159.50;4991915;28;20523;-70
2023/01/28 09:27:47;;;;;;;11.63;8.70;;;;;;;-143.84;81.56;45186.16;4991721;28;20546;-70
2023/01/28 09:30:17;;;;;;;14.43;9.53;;;;;;;-143.84;82.55;45138.56;4992064;28;20982;-70
2023/01/28 09:32:44;;;;;;;13.70;9.97;;;;;;;-143.84;82.81;45077.63;4991375;28;20927;-73
2023/01/28 09:35:11;;;;;;;12.17;9.10;;;;;;;-143.84;82.21;45148.09;4992301;28;20441;-71
2023/01/28 09:37:38;;;;;;;14.10;10.40;;;;;;;-143.84;81.36;45150.00;4992222;28;20448;-70
2023/01/28 09:40:07;;;;;;;12.00;9.37;;;;;;;-143.84;81.18;45189.97;4992026;28;20440;-78
2023/01/28 09:42:55;;;;;;;13.67;10.03;;;;;;;-143.84;81.76;45207.13;4992784;28;20531;-76
2023/01/28 09:45:34;;;;;;;21.70;10.43;;;;;;;-143.84;81.23;45188.06;4991932;28;20452;-75
2023/01/28 09:48:03;;;;;;;14.67;10.27;;;;;;;-143.84;81.15;45220.44;5001228;28;20930;-75
2023/01/28 09:50:34;;;;;;;13.73;10.23;;;;;;;-143.84;81.50;45161.41;4992525;28;20452;-75
2023/01/28 09:53:06;;;;;;;17.73;9.70;;;;;;;-143.84;80.45;45188.06;4993246;28;20441;-78
2023/01/28 09:55:36;;;;;;;14.33;10.60;;;;;;;-143.84;80.39;45205.22;4993871;28;20444;-76
2023/01/28 09:58:08;;;;;;;15.77;11.53;;;;;;;-143.84;81.07;45193.78;4992907;28;20440;-76
2023/01/28 10:00:47;;;;;;;11.77;9.20;;;;;;;-143.84;80.69;45195.69;4992002;28;20494;-76
2023/01/28 10:03:35;;;;;;;13.50;10.00;;;;;;;-143.84;80.59;45207.13;4992932;28;20940;-73
2023/01/28 10:06:14;;;;;;;13.70;9.60;;;;;;;-143.84;80.15;45222.34;4991150;28;20451;-74
2023/01/28 10:09:03;;;;;;;13.03;10.70;;;;;;;-143.84;80.47;45247.09;4991653;28;20516;-75
2023/01/28 10:11:44;;;;;;;15.80;10.60;;;;;;;-143.84;79.77;45281.38;4991235;28;20483;-74
2023/01/28 10:14:19;;;;;;;15.93;10.83;;;;;;;-143.84;79.96;45231.88;4996022;28;20837;-76
2023/01/28 10:16:52;;;;;;;13.97;10.50;;;;;;;-143.84;80.16;45228.06;5007378;28;20520;-75
2023/01/28 10:19:26;;;;;;;15.77;10.37;;;;;;;-143.84;78.79;45264.25;5012003;28;20440;-74
2023/01/28 10:21:57;;;;;;;14.10;9.90;;;;;;;-143.84;79.05;45249.00;5010331;28;20946;-73
2023/01/28 10:24:30;;;;;;;13.50;10.37;;;;;;;-143.84;79.65;45201.41;5010058;28;20505;-74
2023/01/28 10:26:58;;;;;;;16.70;10.60;;;;;;;-143.84;78.23;45254.72;5011409;28;20477;-74
2023/01/28 10:29:29;;;;;;;18.30;12.70;;;;;;;-143.84;78.25;45256.63;5012332;28;20440;-73
2023/01/28 10:32:05;;;;;;;15.60;10.27;;;;;;;-143.84;77.83;45273.78;5011174;28;20883;-73
2023/01/28 10:34:33;;;;;;;17.43;11.50;;;;;;;-143.84;77.66;45235.69;5012309;28;20510;-75
2023/01/28 10:37:00;;;;;;;15.73;10.60;;;;;;;-143.84;77.00;45277.56;5012442;28;20915;-75
2023/01/28 10:39:29;;;;;;;15.37;11.30;;;;;;;-143.84;78.23;45247.09;5012579;28;20834;-77
2023/01/28 10:41:56;;;;;;;20.20;11.60;;;;;;;-143.84;78.50;45245.19;5011009;28;20460;-74
2023/01/28 10:44:32;;;;;;;14.70;10.67;;;;;;;-143.84;77.44;45250.91;5011277;28;20461;-76
2023/01/28 10:47:04;;;;;;;14.53;9.80;;;;;;;-143.84;77.94;45273.78;5011085;28;20974;-74
2023/01/28 10:49:36;;;;;;;13.90;10.20;;;;;;;-143.84;78.28;45235.69;5011270;28;20436;-74
2023/01/28 10:52:11;;;;;;;12.57;10.07;;;;;;;-143.84;78.46;45247.09;5010491;28;20458;-74
2023/01/28 10:54:38;;;;;;;16.17;9.70;;;;;;;-143.84;77.15;45239.50;5010148;28;20429;-74
2023/01/28 10:57:12;;;;;;;14.87;11.50;;;;;;;-143.84;76.76;45273.78;5010360;28;20453;-74
2023/01/28 10:59:41;;;;;;;11.83;8.63;;;;;;;-143.84;76.71;45258.53;5009425;28;20883;-74
2023/01/28 11:02:25;;;;;;;14.73;11.43;;;;;;;-143.84;76.90;45264.25;5010473;28;20527;-74
2023/01/28 11:05:01;;;;;;;12.43;9.20;;;;;;;-143.84;77.15;45264.25;5011808;28;20464;-75
2023/01/28 11:07:28;;;;;;;11.83;9.80;;;;;;;-143.84;77.09;45250.91;5010555;28;20539;-77
2023/01/28 11:09:56;;;;;;;17.00;11.27;;;;;;;-143.84;77.09;45258.53;5010612;28;20452;-74
2023/01/28 11:12:25;;;;;;;15.70;11.60;;;;;;;-143.84;77.04;45254.72;5010429;28;20463;-75
2023/01/28 11:14:54;;;;;;;17.13;11.87;;;;;;;-143.84;76.83;45254.72;5010220;28;20468;-76
2023/01/28 11:17:25;;;;;;;17.10;11.80;;;;;;;-143.84;82.56;45140.47;5010334;28;20522;-75
2023/01/28 11:19:53;;;;;;;17.30;12.30;;;;;;;-143.84;81.45;45138.56;5010016;28;20526;-77
2023/01/28 11:22:28;;;;;;;19.93;11.60;;;;;;;-143.84;77.46;45241.41;5010530;28;20510;-77
2023/01/28 11:24:56;;;;;;;19.10;11.87;;;;;;;-143.84;76.66;45256.63;5010303;28;20437;-77
2023/01/28 11:27:29;;;;;;;15.13;11.97;;;;;;;-143.84;76.17;45273.78;5009739;28;20487;-70
2023/01/28 11:30:00;;;;;;;20.63;13.03;;;;;;;-143.84;76.32;45249.00;5009087;28;20973;-71
2023/01/28 11:32:30;;;;;;;21.10;12.00;;;;;;;-143.84;76.12;45327.09;5009128;28;20518;-71
2023/01/28 11:34:58;;;;;;;16.60;11.37;;;;;;;-143.84;76.31;45254.72;5008472;28;20455;-71
2023/01/28 11:37:27;;;;;;;21.53;13.00;;;;;;;-143.84;77.15;45231.88;5009054;28;20447;-71
2023/01/28 11:40:20;;;;;;;17.87;12.40;;;;;;;-143.84;77.56;45296.63;5007875;28;20957;-71
2023/01/28 11:42:48;;;;;;;20.40;14.00;;;;;;;-143.84;77.49;45269.97;4994482;28;20523;-71
2023/01/28 11:45:18;;;;;;;23.20;13.83;;;;;;;-143.84;77.34;45268.06;5008981;28;20449;-71
2023/01/28 11:47:58;;;;;;;31.33;14.37;;;;;;;-143.84;77.68;45271.88;5009160;28;21334;-70
2023/01/28 11:50:34;;;;;;;20.70;14.13;;;;;;;-143.84;77.94;45247.09;5007489;28;20452;-71